Cacapava do Sul, Brazil
Current Conditions -  °F | °C
As of 2:00 PM on Thursday 27 Nov 2014 (Local Time) from SBSM Reporting Station
Broken Clouds Broken Clouds  
Wind Chill: 79°   Ceiling: 2500
Heat Index: 81°   Visibility: 6mi
Dew Point: 66°   Wind: 8mph
Humidity: 65%   Direction: 150°SSE
Pressure: 29.94"   Gusts: NA
Location:  30.51°S, 53.49°W
Report Text: SBSM 271600Z 15007KT 110V180 9999 BKN025 26/19 Q1014
Loading
Personal Weather Stations






























Interactive Weather Map New forecast layout! Learn more

10-Day Weather Forecast

Advertisements
Track Severe Weather on mobile